Time;durP1;ratioP1;P1;durP2;ratioP2;P2;SDS_P1;SDS_P2;PMS_P1;PMS_P2;Temp;Humidity;BMP_temperature;BMP_pressure;BME280_temperature;BME280_humidity;BME280_pressure;Samples;Min_cycle;Max_cycle;Signal;HPM_P1;HPM_P2
2021/09/04 00:00:21;;;;;;;27.33;23.55;;;17.50;99.90;;;;;;5025771;28;20153;-81
2021/09/04 00:02:48;;;;;;;30.38;23.85;;;17.50;99.90;;;;;;5021962;28;20430;-81
2021/09/04 00:05:15;;;;;;;28.52;22.73;;;17.50;99.90;;;;;;5043310;23;20050;-72
2021/09/04 00:07:42;;;;;;;31.35;24.13;;;17.50;99.90;;;;;;5012838;28;20085;-78
2021/09/04 00:10:10;;;;;;;29.10;23.35;;;17.40;99.90;;;;;;5014278;28;20096;-77
2021/09/04 00:12:37;;;;;;;28.83;22.83;;;17.40;99.90;;;;;;5013623;28;20085;-78
2021/09/04 00:15:06;;;;;;;27.70;22.35;;;17.40;99.90;;;;;;5016429;28;20093;-77
2021/09/04 00:17:34;;;;;;;27.52;24.33;;;17.40;99.90;;;;;;5018904;28;20049;-77
2021/09/04 00:20:01;;;;;;;28.40;23.80;;;17.40;99.90;;;;;;5023499;28;20097;-77
2021/09/04 00:22:28;;;;;;;30.33;24.75;;;17.40;99.90;;;;;;5021638;28;20143;-77
2021/09/04 00:24:55;;;;;;;29.73;23.98;;;17.40;99.90;;;;;;5019549;28;20050;-78
2021/09/04 00:27:22;;;;;;;31.20;23.98;;;17.40;99.90;;;;;;5017176;28;20145;-77
2021/09/04 00:29:49;;;;;;;26.05;23.10;;;17.30;99.90;;;;;;5016905;28;20078;-78
2021/09/04 00:32:16;;;;;;;27.52;22.42;;;17.30;99.90;;;;;;5015980;28;20085;-76
2021/09/04 00:34:47;;;;;;;28.83;24.33;;;17.30;99.90;;;;;;5015040;28;20133;-77
2021/09/04 00:37:14;;;;;;;27.73;23.52;;;17.30;99.90;;;;;;5015573;28;20512;-78
2021/09/04 00:39:41;;;;;;;26.02;22.65;;;17.30;99.90;;;;;;5015379;28;20053;-77
2021/09/04 00:42:08;;;;;;;31.02;23.67;;;17.30;99.90;;;;;;5015100;28;20137;-77
2021/09/04 00:44:35;;;;;;;28.10;23.30;;;17.30;99.90;;;;;;5014989;28;20141;-77
2021/09/04 00:47:03;;;;;;;27.88;23.00;;;17.30;99.90;;;;;;5014896;28;20111;-78
2021/09/04 00:49:30;;;;;;;28.38;22.30;;;17.30;99.90;;;;;;5015135;28;20567;-77
2021/09/04 00:51:58;;;;;;;30.35;23.92;;;17.20;99.90;;;;;;5015330;28;20474;-77
2021/09/04 00:54:28;;;;;;;33.60;24.33;;;17.00;99.90;;;;;;5015617;28;20073;-76
2021/09/04 00:56:55;;;;;;;33.10;25.05;;;16.90;99.90;;;;;;5015125;28;20058;-76
2021/09/04 00:59:23;;;;;;;28.23;24.25;;;16.90;99.90;;;;;;5015515;28;20058;-76
2021/09/04 01:01:50;;;;;;;30.92;24.85;;;16.80;99.90;;;;;;5015768;28;20046;-77
2021/09/04 01:04:17;;;;;;;28.08;24.23;;;16.70;99.90;;;;;;5015748;28;20136;-77
2021/09/04 01:06:45;;;;;;;31.45;25.55;;;16.70;99.90;;;;;;5015139;28;20100;-77
2021/09/04 01:09:13;;;;;;;32.42;25.23;;;16.80;99.90;;;;;;5015973;28;20054;-76
2021/09/04 01:11:41;;;;;;;33.05;25.27;;;16.80;99.90;;;;;;5015339;28;20057;-76
2021/09/04 01:14:08;;;;;;;30.83;25.25;;;16.80;99.90;;;;;;5015302;28;20054;-75
2021/09/04 01:16:36;;;;;;;36.30;25.80;;;16.80;99.90;;;;;;5015449;28;20379;-76
2021/09/04 01:19:12;;;;;;;29.73;25.00;;;16.80;99.90;;;;;;5015134;28;20061;-76
2021/09/04 01:21:39;;;;;;;31.13;25.23;;;16.80;99.90;;;;;;5015636;28;20469;-77
2021/09/04 01:24:08;;;;;;;33.75;26.05;;;16.80;99.90;;;;;;5014543;28;20077;-76
2021/09/04 01:26:37;;;;;;;34.20;26.40;;;16.80;99.90;;;;;;5013921;28;20112;-76
2021/09/04 01:29:05;;;;;;;31.25;25.23;;;16.80;99.90;;;;;;5014559;28;20054;-76
2021/09/04 01:31:32;;;;;;;35.35;26.33;;;16.80;99.90;;;;;;5015412;28;20064;-75
2021/09/04 01:34:00;;;;;;;29.73;25.05;;;16.80;99.90;;;;;;5014756;28;20172;-75
2021/09/04 01:36:32;;;;;;;37.30;25.80;;;16.70;99.90;;;;;;5014836;28;20132;-76
2021/09/04 01:39:02;;;;;;;33.45;25.52;;;16.70;99.90;;;;;;5015220;28;20522;-76
2021/09/04 01:41:29;;;;;;;32.20;25.88;;;16.60;99.90;;;;;;5015313;28;20136;-75
2021/09/04 01:43:58;;;;;;;33.67;25.52;;;16.60;99.90;;;;;;5014784;28;20049;-76
2021/09/04 01:46:25;;;;;;;30.88;25.58;;;16.50;99.90;;;;;;5014855;28;20085;-77
2021/09/04 01:48:52;;;;;;;35.08;26.77;;;16.50;99.90;;;;;;5014588;28;20104;-77
2021/09/04 01:51:20;;;;;;;32.55;25.85;;;16.50;99.90;;;;;;5014481;28;20543;-76
2021/09/04 01:53:47;;;;;;;31.67;25.13;;;16.40;99.90;;;;;;5014535;28;20058;-76
2021/09/04 01:56:14;;;;;;;33.65;27.40;;;16.40;99.90;;;;;;5014309;28;20120;-76
2021/09/04 01:58:41;;;;;;;35.78;27.65;;;16.40;99.90;;;;;;5014654;28;20140;-76
2021/09/04 02:01:10;;;;;;;36.35;28.75;;;16.40;99.90;;;;;;5014250;28;20414;-77
2021/09/04 02:03:40;;;;;;;34.33;27.48;;;16.40;99.90;;;;;;5014402;28;20136;-77
2021/09/04 02:06:09;;;;;;;34.58;28.38;;;16.30;99.90;;;;;;5014047;28;20050;-76
2021/09/04 02:08:36;;;;;;;36.70;28.27;;;16.30;99.90;;;;;;5013926;28;20088;-77
2021/09/04 02:11:03;;;;;;;34.55;27.70;;;16.30;99.90;;;;;;5013812;28;20128;-76
2021/09/04 02:13:30;;;;;;;36.38;28.52;;;16.30;99.90;;;;;;5014133;28;20483;-76
2021/09/04 02:15:57;;;;;;;33.85;27.92;;;16.20;99.90;;;;;;5014345;28;20081;-76
2021/09/04 02:18:28;;;;;;;35.15;28.23;;;16.20;99.90;;;;;;5014233;28;20476;-77
2021/09/04 02:20:54;;;;;;;37.92;27.80;;;16.20;99.90;;;;;;5014432;28;20485;-76
2021/09/04 02:23:21;;;;;;;32.70;26.33;;;16.20;99.90;;;;;;5013890;28;20172;-76
2021/09/04 02:25:48;;;;;;;35.78;27.92;;;16.20;99.90;;;;;;5012362;28;20540;-77
2021/09/04 02:28:15;;;;;;;31.83;28.15;;;16.20;99.90;;;;;;5013632;28;20053;-77
2021/09/04 02:30:42;;;;;;;41.05;29.58;;;16.20;99.90;;;;;;5014020;28;20053;-77
2021/09/04 02:33:10;;;;;;;39.97;30.10;;;16.10;99.90;;;;;;5013996;28;20113;-77
2021/09/04 02:35:38;;;;;;;35.92;29.70;;;16.10;99.90;;;;;;5013876;28;20092;-77
2021/09/04 02:38:05;;;;;;;38.25;29.17;;;16.10;99.90;;;;;;5012834;28;20570;-77
2021/09/04 02:40:32;;;;;;;35.45;28.85;;;16.10;99.90;;;;;;5013271;28;20085;-77
2021/09/04 02:42:59;;;;;;;36.53;30.38;;;16.00;99.90;;;;;;5013634;28;20130;-77
2021/09/04 02:45:26;;;;;;;35.92;29.52;;;16.00;99.90;;;;;;5013807;28;20104;-77
2021/09/04 02:47:53;;;;;;;41.28;29.95;;;16.00;99.90;;;;;;5014660;28;20120;-77
2021/09/04 02:50:20;;;;;;;40.78;30.45;;;15.90;99.90;;;;;;5014668;28;20137;-77
2021/09/04 02:52:48;;;;;;;43.47;31.70;;;15.90;99.90;;;;;;5013123;28;20141;-77
2021/09/04 02:55:15;;;;;;;36.90;28.85;;;15.90;99.90;;;;;;5013418;28;20080;-77
2021/09/04 02:57:42;;;;;;;36.03;29.85;;;15.90;99.90;;;;;;5013477;28;20085;-77
2021/09/04 03:00:10;;;;;;;40.45;29.60;;;15.90;99.90;;;;;;5013065;28;20133;-77
2021/09/04 03:02:37;;;;;;;42.60;32.00;;;15.90;99.90;;;;;;5013258;28;20085;-77
2021/09/04 03:05:05;;;;;;;44.13;32.83;;;15.90;99.90;;;;;;5012888;28;20516;-77
2021/09/04 03:07:32;;;;;;;42.83;33.05;;;15.90;99.90;;;;;;5012612;28;20554;-77
2021/09/04 03:10:00;;;;;;;47.17;34.47;;;15.80;99.90;;;;;;5013072;28;20474;-77
2021/09/04 03:12:27;;;;;;;46.30;35.15;;;15.80;99.90;;;;;;5013409;28;20581;-77
2021/09/04 03:14:54;;;;;;;45.13;35.60;;;15.80;99.90;;;;;;5012973;28;20137;-77
2021/09/04 03:17:20;;;;;;;49.22;34.33;;;15.80;99.90;;;;;;5012737;28;20045;-77
2021/09/04 03:19:47;;;;;;;48.53;34.65;;;15.70;99.90;;;;;;5013730;28;20089;-76
2021/09/04 03:22:14;;;;;;;47.50;35.90;;;15.70;99.90;;;;;;5013785;28;20089;-77
2021/09/04 03:24:41;;;;;;;49.70;34.42;;;15.70;99.90;;;;;;5013103;28;20053;-77
2021/09/04 03:27:09;;;;;;;45.35;34.95;;;15.70;99.90;;;;;;5012786;28;20399;-77
2021/09/04 03:29:36;;;;;;;49.22;36.75;;;15.70;99.90;;;;;;5013505;28;20148;-77
2021/09/04 03:32:04;;;;;;;51.03;37.10;;;15.70;99.90;;;;;;5014294;28;20485;-77
2021/09/04 03:34:30;;;;;;;47.38;35.58;;;15.60;99.90;;;;;;5014395;28;20152;-77
2021/09/04 03:36:57;;;;;;;48.25;34.25;;;15.60;99.90;;;;;;5013884;28;20525;-77
2021/09/04 03:39:24;;;;;;;43.95;36.05;;;15.60;99.90;;;;;;5013543;28;20088;-77
2021/09/04 03:41:51;;;;;;;44.08;35.67;;;15.60;99.90;;;;;;5015436;28;20054;-77
2021/09/04 03:44:19;;;;;;;47.75;36.80;;;15.60;99.90;;;;;;5018458;28;20053;-76
2021/09/04 03:46:46;;;;;;;44.38;34.35;;;15.50;99.90;;;;;;5017634;28;20046;-77
2021/09/04 03:49:13;;;;;;;42.97;33.88;;;15.50;99.90;;;;;;5014782;28;20089;-77
2021/09/04 03:51:41;;;;;;;46.75;34.63;;;15.50;99.90;;;;;;5020992;28;20064;-78
2021/09/04 03:54:08;;;;;;;45.10;34.35;;;15.50;99.90;;;;;;5018102;28;20052;-77
2021/09/04 03:56:35;;;;;;;46.17;34.65;;;15.50;99.90;;;;;;5017352;28;20132;-76
2021/09/04 03:59:02;;;;;;;42.05;32.38;;;15.40;99.90;;;;;;5017220;28;20473;-77
2021/09/04 04:01:31;;;;;;;46.28;35.83;;;15.40;99.90;;;;;;5016093;28;20092;-78
2021/09/04 04:03:58;;;;;;;45.30;33.90;;;15.40;99.90;;;;;;5016461;28;20046;-78
2021/09/04 04:06:24;;;;;;;43.58;33.85;;;15.40;99.90;;;;;;5015678;28;20129;-77
2021/09/04 04:08:51;;;;;;;46.10;34.75;;;15.40;99.90;;;;;;5017051;28;20145;-78
2021/09/04 04:11:18;;;;;;;48.80;33.92;;;15.30;99.90;;;;;;5017652;28;20133;-77
2021/09/04 04:13:45;;;;;;;46.95;34.95;;;15.30;99.90;;;;;;5017839;28;20134;-77
2021/09/04 04:16:12;;;;;;;47.78;35.00;;;15.20;99.90;;;;;;5017490;28;20473;-76
2021/09/04 04:18:40;;;;;;;47.90;34.72;;;15.10;99.90;;;;;;5017612;28;20077;-77
2021/09/04 04:21:07;;;;;;;44.75;36.65;;;15.10;99.90;;;;;;5017958;28;20072;-77
2021/09/04 04:23:34;;;;;;;50.95;37.20;;;15.10;99.90;;;;;;5018458;28;20132;-77
2021/09/04 04:26:01;;;;;;;50.47;37.95;;;15.10;99.90;;;;;;5016752;28;20429;-77
2021/09/04 04:28:28;;;;;;;53.13;37.92;;;15.10;99.90;;;;;;5016734;28;20129;-77
2021/09/04 04:30:55;;;;;;;53.72;36.90;;;15.00;99.90;;;;;;5017692;28;20137;-77
2021/09/04 04:33:22;;;;;;;59.45;41.63;;;14.90;99.90;;;;;;5016789;28;20081;-76
2021/09/04 04:35:50;;;;;;;65.68;48.60;;;14.90;99.90;;;;;;5015737;28;20066;-77
2021/09/04 04:38:17;;;;;;;67.43;50.13;;;14.90;99.90;;;;;;5016448;28;20235;-77
2021/09/04 04:40:44;;;;;;;68.15;51.17;;;14.90;99.90;;;;;;5015846;28;20092;-77
2021/09/04 04:43:11;;;;;;;61.72;47.15;;;14.90;99.90;;;;;;5015659;28;20093;-77
2021/09/04 04:45:37;;;;;;;61.90;45.08;;;14.90;99.90;;;;;;5014988;28;20089;-77
2021/09/04 04:48:05;;;;;;;55.95;39.88;;;14.90;99.90;;;;;;5015108;28;20132;-77
2021/09/04 04:50:32;;;;;;;54.38;40.67;;;14.90;99.90;;;;;;5014461;28;20481;-77
2021/09/04 04:53:01;;;;;;;59.25;39.95;;;14.80;99.90;;;;;;5013070;28;20081;-76
2021/09/04 04:55:28;;;;;;;55.40;39.38;;;14.80;99.90;;;;;;5015137;28;20100;-78
2021/09/04 04:57:55;;;;;;;50.75;37.63;;;14.80;99.90;;;;;;5015550;28;20104;-78
2021/09/04 05:00:22;;;;;;;53.88;38.65;;;14.80;99.90;;;;;;5014580;28;20072;-78
2021/09/04 05:02:48;;;;;;;55.90;37.90;;;14.80;99.90;;;;;;5015032;28;20052;-79
2021/09/04 05:05:16;;;;;;;50.92;36.75;;;14.80;99.90;;;;;;5011431;28;20189;-78
2021/09/04 05:07:42;;;;;;;50.58;37.05;;;14.90;99.90;;;;;;5012977;28;20060;-76
2021/09/04 05:10:11;;;;;;;53.30;36.72;;;14.90;99.90;;;;;;5013637;28;20108;-77
2021/09/04 05:12:38;;;;;;;54.70;37.25;;;14.90;99.90;;;;;;5013412;28;20149;-78
2021/09/04 05:15:06;;;;;;;50.17;36.28;;;14.90;99.90;;;;;;5014160;28;20315;-78
2021/09/04 05:17:33;;;;;;;52.47;37.28;;;14.90;99.90;;;;;;5014339;28;20100;-80
2021/09/04 05:20:00;;;;;;;55.85;36.72;;;15.00;99.90;;;;;;5014883;28;20100;-78
2021/09/04 05:22:27;;;;;;;46.65;36.33;;;15.00;99.90;;;;;;5009678;28;20052;-78
2021/09/04 05:24:54;;;;;;;45.88;35.83;;;15.00;99.90;;;;;;5013951;28;20065;-78
2021/09/04 05:27:22;;;;;;;50.53;35.65;;;15.10;99.90;;;;;;5013417;28;20465;-79
2021/09/04 05:29:49;;;;;;;46.22;35.40;;;15.10;99.90;;;;;;5013446;28;20081;-77
2021/09/04 05:32:22;;;;;;;43.72;33.40;;;15.10;99.90;;;;;;5013605;28;20132;-78
2021/09/04 05:34:49;;;;;;;;;;;15.10;99.90;;;;;;5014411;28;20054;-78
2021/09/04 05:37:15;;;;;;;44.33;34.30;;;15.10;99.90;;;;;;5013871;28;20029;-76
2021/09/04 05:39:42;;;;;;;42.30;32.65;;;15.10;99.90;;;;;;5014437;28;20053;-79
2021/09/04 05:42:09;;;;;;;40.95;32.50;;;15.20;99.90;;;;;;5014872;28;20446;-79
2021/09/04 05:44:38;;;;;;;41.53;32.17;;;15.20;99.90;;;;;;5014944;28;20418;-79
2021/09/04 05:47:05;;;;;;;41.10;31.48;;;15.30;99.90;;;;;;5014250;28;20137;-76
2021/09/04 05:49:31;;;;;;;37.00;29.08;;;15.40;99.90;;;;;;5014045;28;20129;-76
2021/09/04 05:51:58;;;;;;;38.53;30.33;;;15.50;99.90;;;;;;5014683;28;20060;-79
2021/09/04 05:54:25;;;;;;;39.97;31.58;;;15.60;99.90;;;;;;5014496;28;20074;-79
2021/09/04 05:56:52;;;;;;;38.08;30.70;;;15.60;99.90;;;;;;5015444;28;20567;-80
2021/09/04 05:59:19;;;;;;;38.35;29.33;;;15.70;99.90;;;;;;5015622;28;20386;-78
2021/09/04 06:01:47;;;;;;;35.65;30.08;;;15.80;99.90;;;;;;5015059;28;20473;-78
2021/09/04 06:04:14;;;;;;;37.78;29.52;;;15.90;99.90;;;;;;5013642;28;20105;-78
2021/09/04 06:06:41;;;;;;;37.70;28.92;;;16.00;99.90;;;;;;5014862;28;20050;-79
2021/09/04 06:09:08;;;;;;;38.83;29.95;;;16.00;99.90;;;;;;5015084;28;20132;-77
2021/09/04 06:11:35;;;;;;;40.63;31.75;;;16.10;99.90;;;;;;5013231;28;20429;-78
2021/09/04 06:14:06;;;;;;;40.90;29.75;;;16.10;99.90;;;;;;5012773;28;20140;-78
2021/09/04 06:16:32;;;;;;;36.28;29.10;;;16.30;99.90;;;;;;5012900;28;20068;-78
2021/09/04 06:19:01;;;;;;;34.53;27.83;;;16.50;99.90;;;;;;5013773;28;20132;-78
2021/09/04 06:21:28;;;;;;;34.15;26.58;;;16.80;99.90;;;;;;5015798;28;20195;-79
2021/09/04 06:23:55;;;;;;;29.60;24.30;;;17.30;99.90;;;;;;5017549;28;20054;-79
2021/09/04 06:26:21;;;;;;;27.58;23.23;;;17.80;99.90;;;;;;5014383;28;20133;-80
2021/09/04 06:28:48;;;;;;;31.08;24.25;;;18.30;99.90;;;;;;5012926;28;20052;-78
2021/09/04 06:31:18;;;;;;;31.33;24.48;;;18.80;99.90;;;;;;5013717;28;20080;-79
2021/09/04 06:33:45;;;;;;;29.73;22.83;;;19.30;99.90;;;;;;5013930;28;20104;-79
2021/09/04 06:36:13;;;;;;;31.55;24.45;;;19.50;99.90;;;;;;5013175;28;20056;-79
2021/09/04 06:38:40;;;;;;;27.00;22.45;;;19.50;99.90;;;;;;5013226;28;20517;-78
2021/09/04 06:41:07;;;;;;;27.83;21.98;;;20.00;99.90;;;;;;5013013;28;20449;-76
2021/09/04 06:43:34;;;;;;;25.90;21.52;;;20.20;99.90;;;;;;5015160;28;20074;-77
2021/09/04 06:46:01;;;;;;;25.65;21.45;;;20.80;99.90;;;;;;5013689;28;20488;-78
2021/09/04 06:48:28;;;;;;;29.75;21.38;;;21.30;99.90;;;;;;5013049;28;20050;-76
2021/09/04 06:50:55;;;;;;;25.30;22.05;;;21.00;99.90;;;;;;5012242;28;20054;-75
2021/09/04 06:53:23;;;;;;;27.88;22.33;;;20.70;99.90;;;;;;5011930;28;20132;-76
2021/09/04 06:55:50;;;;;;;24.70;21.17;;;20.80;99.90;;;;;;5011285;28;20133;-75
2021/09/04 06:58:18;;;;;;;29.05;21.77;;;21.10;99.90;;;;;;5012122;28;20049;-75
2021/09/04 07:00:45;;;;;;;27.83;22.02;;;21.20;99.90;;;;;;5011980;28;20050;-75
2021/09/04 07:03:12;;;;;;;25.42;21.83;;;21.10;99.90;;;;;;5011987;28;20168;-74
2021/09/04 07:05:40;;;;;;;26.73;22.45;;;20.60;99.90;;;;;;5014127;28;20069;-76
2021/09/04 07:08:07;;;;;;;30.67;22.92;;;20.50;99.90;;;;;;5014552;28;20122;-76
2021/09/04 07:10:35;;;;;;;25.58;22.83;;;20.50;99.90;;;;;;5013112;28;20057;-76
2021/09/04 07:13:02;;;;;;;24.00;21.40;;;20.40;99.90;;;;;;5012309;28;20152;-76
2021/09/04 07:15:29;;;;;;;23.50;20.90;;;20.70;99.90;;;;;;5012430;28;20136;-76
2021/09/04 07:17:56;;;;;;;23.60;20.45;;;21.20;99.90;;;;;;5012219;28;20068;-76
2021/09/04 07:20:23;;;;;;;24.38;20.60;;;21.80;99.90;;;;;;5012557;28;20085;-76
2021/09/04 07:22:50;;;;;;;24.67;20.85;;;22.40;99.90;;;;;;5012887;28;20128;-77
2021/09/04 07:25:17;;;;;;;23.15;20.10;;;22.50;99.90;;;;;;5018083;28;20461;-76
2021/09/04 07:27:45;;;;;;;23.25;20.05;;;23.00;99.90;;;;;;5020633;28;20048;-76
2021/09/04 07:30:13;;;;;;;24.70;20.80;;;23.40;99.90;;;;;;5019515;28;20058;-77
2021/09/04 07:32:40;;;;;;;29.13;22.15;;;23.50;99.90;;;;;;5020642;28;20118;-77
2021/09/04 07:35:08;;;;;;;25.65;20.83;;;23.80;99.90;;;;;;5018542;28;20053;-76
2021/09/04 07:37:35;;;;;;;23.65;20.45;;;24.20;99.90;;;;;;5019530;28;20143;-77
2021/09/04 07:40:02;;;;;;;26.48;22.17;;;24.20;99.90;;;;;;5020253;28;20132;-76
2021/09/04 07:42:29;;;;;;;23.10;20.65;;;23.80;99.90;;;;;;5021156;28;20395;-75
2021/09/04 07:44:57;;;;;;;25.85;22.00;;;23.80;99.90;;;;;;5021549;28;20495;-76
2021/09/04 07:47:24;;;;;;;28.40;22.83;;;23.60;99.90;;;;;;5018983;28;20366;-78
2021/09/04 07:49:50;;;;;;;27.98;24.30;;;23.30;99.90;;;;;;5019495;28;20522;-78
2021/09/04 07:52:17;;;;;;;29.10;23.88;;;23.00;99.90;;;;;;5018408;28;20463;-76
2021/09/04 07:54:44;;;;;;;28.50;23.98;;;22.80;99.90;;;;;;5018156;28;20103;-79
2021/09/04 07:57:11;;;;;;;28.50;24.55;;;22.60;99.90;;;;;;5019294;28;20133;-75
2021/09/04 07:59:38;;;;;;;31.40;24.77;;;22.70;99.90;;;;;;5018368;28;20049;-78
2021/09/04 08:02:07;;;;;;;33.03;25.48;;;23.20;99.90;;;;;;5021354;28;20085;-79
2021/09/04 08:04:34;;;;;;;31.58;26.85;;;23.20;99.90;;;;;;5013308;28;20097;-79
2021/09/04 08:07:01;;;;;;;30.35;25.77;;;23.70;99.90;;;;;;5016935;28;20118;-78
2021/09/04 08:09:28;;;;;;;34.80;27.83;;;23.90;99.90;;;;;;5009973;28;20049;-78
2021/09/04 08:11:55;;;;;;;34.47;28.58;;;23.70;99.90;;;;;;5014994;28;20054;-78
2021/09/04 08:14:23;;;;;;;33.58;27.48;;;23.60;99.90;;;;;;5018158;28;20137;-80
2021/09/04 08:16:50;;;;;;;33.88;27.38;;;23.30;99.90;;;;;;5021139;28;20061;-78
2021/09/04 08:19:18;;;;;;;33.53;28.27;;;23.40;99.90;;;;;;5015921;28;20060;-77
2021/09/04 08:21:45;;;;;;;31.33;26.85;;;23.30;99.90;;;;;;5016870;28;20597;-77
2021/09/04 08:24:12;;;;;;;32.55;27.80;;;23.50;99.90;;;;;;5021840;28;20077;-79
2021/09/04 08:26:39;;;;;;;32.22;27.42;;;23.40;99.90;;;;;;5024221;28;20525;-79
2021/09/04 08:29:05;;;;;;;32.35;27.17;;;23.60;99.90;;;;;;5023805;28;20149;-82
2021/09/04 08:31:32;;;;;;;31.67;28.20;;;23.20;99.90;;;;;;5028816;28;20073;-80
2021/09/04 08:33:59;;;;;;;32.20;27.70;;;23.50;99.90;;;;;;5027529;28;20474;-80
2021/09/04 08:36:28;;;;;;;36.33;26.13;;;23.80;99.90;;;;;;5026683;28;20084;-80
2021/09/04 08:38:55;;;;;;;30.95;26.23;;;24.00;99.90;;;;;;5023855;28;20069;-80
2021/09/04 08:41:23;;;;;;;32.55;27.00;;;24.00;99.90;;;;;;5031422;28;20217;-81
2021/09/04 08:43:49;;;;;;;31.63;26.33;;;23.90;99.90;;;;;;5021677;28;20153;-80
2021/09/04 08:46:16;;;;;;;30.27;26.95;;;24.30;99.90;;;;;;5017547;28;20049;-78
2021/09/04 08:48:44;;;;;;;33.05;26.17;;;24.20;99.90;;;;;;5022771;28;20137;-77
2021/09/04 08:51:11;;;;;;;33.20;26.92;;;24.30;99.90;;;;;;5030812;28;20053;-77
2021/09/04 08:53:40;;;;;;;36.17;27.85;;;24.20;99.90;;;;;;5029384;28;20060;-78
2021/09/04 08:56:10;;;;;;;32.78;26.75;;;24.00;99.90;;;;;;5015073;28;20058;-79
2021/09/04 08:58:37;;;;;;;33.10;27.70;;;24.10;99.90;;;;;;5015051;28;20049;-77
2021/09/04 09:01:14;;;;;;;33.55;26.40;;;24.40;99.90;;;;;;5015955;28;20050;-77
2021/09/04 09:03:43;;;;;;;33.55;27.98;;;24.80;99.90;;;;;;5013963;28;20056;-77
2021/09/04 09:06:10;;;;;;;31.88;26.35;;;24.80;99.90;;;;;;5013615;28;20053;-77
2021/09/04 09:08:44;;;;;;;31.45;26.85;;;24.60;99.90;;;;;;5013890;28;20050;-77
2021/09/04 09:11:11;;;;;;;28.65;25.63;;;24.10;99.90;;;;;;5014246;28;20077;-77
2021/09/04 09:13:47;;;;;;;30.90;25.58;;;24.20;99.90;;;;;;5013878;28;20064;-77
2021/09/04 09:16:15;;;;;;;32.08;24.90;;;24.20;99.90;;;;;;5013842;28;20050;-76
2021/09/04 09:18:42;;;;;;;31.80;26.08;;;24.20;99.90;;;;;;5013705;28;20045;-77
2021/09/04 09:21:09;;;;;;;29.17;26.08;;;24.20;99.90;;;;;;5014429;28;20050;-76
2021/09/04 09:23:37;;;;;;;30.67;26.25;;;24.00;99.90;;;;;;5013968;28;20046;-77
2021/09/04 09:26:10;;;;;;;29.17;25.38;;;23.70;99.90;;;;;;5013738;28;20061;-77
2021/09/04 09:28:38;;;;;;;31.75;26.33;;;23.80;99.90;;;;;;5013725;28;20144;-77
2021/09/04 09:31:05;;;;;;;33.17;27.02;;;23.50;99.90;;;;;;5013501;28;20049;-78
2021/09/04 09:33:34;;;;;;;31.98;27.27;;;23.40;99.90;;;;;;5013421;28;20590;-77
2021/09/04 09:36:03;;;;;;;33.17;27.35;;;23.20;99.90;;;;;;5013322;28;20088;-78
2021/09/04 09:38:32;;;;;;;32.85;26.33;;;23.00;99.90;;;;;;5012912;28;20505;-77
2021/09/04 09:41:02;;;;;;;30.27;25.98;;;23.00;99.90;;;;;;5016794;28;20128;-76
2021/09/04 09:43:35;;;;;;;29.05;25.63;;;22.80;99.90;;;;;;5024896;28;20096;-77
2021/09/04 09:46:04;;;;;;;29.10;24.80;;;22.90;99.90;;;;;;5033636;28;20105;-79
2021/09/04 09:48:32;;;;;;;29.67;26.15;;;23.10;99.90;;;;;;5021319;28;20042;-78
2021/09/04 09:51:00;;;;;;;28.63;24.83;;;23.10;99.90;;;;;;5013794;28;20050;-78
2021/09/04 09:53:29;;;;;;;32.10;26.80;;;23.00;99.90;;;;;;5013199;28;20136;-77
2021/09/04 09:55:58;;;;;;;31.45;25.83;;;22.70;99.90;;;;;;5014212;28;20046;-78
2021/09/04 09:58:27;;;;;;;31.05;27.10;;;22.50;99.90;;;;;;5013990;28;20082;-78
2021/09/04 10:00:57;;;;;;;30.30;25.65;;;22.60;99.90;;;;;;5013945;28;20557;-77
2021/09/04 10:03:26;;;;;;;31.38;25.55;;;22.70;99.90;;;;;;5012301;28;20140;-78
2021/09/04 10:05:54;;;;;;;30.45;26.25;;;22.70;99.90;;;;;;5012687;28;20145;-79
2021/09/04 10:08:23;;;;;;;31.45;25.50;;;22.60;99.90;;;;;;5013913;28;20054;-78
2021/09/04 10:10:50;;;;;;;31.23;25.40;;;22.50;99.90;;;;;;5014411;28;20113;-78
2021/09/04 10:13:17;;;;;;;32.20;25.85;;;22.60;99.90;;;;;;5013849;28;20162;-78
2021/09/04 10:15:48;;;;;;;27.92;24.05;;;22.80;99.90;;;;;;5011788;28;20054;-78
2021/09/04 10:18:17;;;;;;;28.35;24.15;;;23.00;99.90;;;;;;5013504;28;20099;-78
2021/09/04 10:20:45;;;;;;;26.85;23.27;;;23.10;99.90;;;;;;5013776;28;20140;-78
2021/09/04 10:23:16;;;;;;;29.63;24.67;;;23.10;99.90;;;;;;5013698;28;20049;-78
2021/09/04 10:25:43;;;;;;;26.90;22.98;;;23.20;99.90;;;;;;5019606;28;20053;-78
2021/09/04 10:28:10;;;;;;;30.00;24.02;;;23.30;99.90;;;;;;5020559;28;20046;-77
2021/09/04 10:30:40;;;;;;;27.63;23.48;;;23.30;99.90;;;;;;5016105;28;20088;-78
2021/09/04 10:33:08;;;;;;;28.92;23.85;;;23.30;99.90;;;;;;5014223;28;20064;-78
2021/09/04 10:35:55;;;;;;;26.50;23.08;;;23.30;99.90;;;;;;5015261;28;20103;-78
2021/09/04 10:38:37;;;;;;;25.70;22.10;;;23.30;99.90;;;;;;5015794;28;20084;-79
2021/09/04 10:41:24;;;;;;;27.77;23.20;;;23.40;99.90;;;;;;5018995;28;20065;-80
2021/09/04 10:43:55;;;;;;;28.35;22.77;;;23.40;99.90;;;;;;5018862;28;20141;-78
2021/09/04 10:46:22;;;;;;;27.83;22.33;;;23.40;99.90;;;;;;5016364;28;20050;-79
2021/09/04 10:49:02;;;;;;;28.40;23.13;;;23.50;99.90;;;;;;5015838;28;20081;-79
2021/09/04 10:51:47;;;;;;;26.70;21.40;;;23.40;99.90;;;;;;5016677;28;20073;-79
2021/09/04 10:54:57;;;;;;;26.83;22.50;;;23.60;99.90;;;;;;5013709;28;20553;-79
2021/09/04 10:57:25;;;;;;;25.05;21.88;;;23.50;99.90;;;;;;5018302;28;20075;-79
2021/09/04 10:59:59;;;;;;;26.67;22.88;;;23.50;99.90;;;;;;5016065;28;20069;-79
2021/09/04 11:02:43;;;;;;;26.10;22.63;;;23.40;99.90;;;;;;5012869;28;20132;-76
2021/09/04 11:05:38;;;;;;;26.75;21.35;;;23.40;99.90;;;;;;5011852;28;20544;-80
2021/09/04 11:08:09;;;;;;;26.13;21.42;;;23.40;99.90;;;;;;5013776;28;20556;-78
2021/09/04 11:10:36;;;;;;;25.55;21.67;;;23.60;99.90;;;;;;5015356;28;20042;-78
2021/09/04 11:13:27;;;;;;;25.40;22.23;;;23.60;99.90;;;;;;5011985;28;20137;-78
2021/09/04 11:15:54;;;;;;;25.65;22.08;;;23.50;99.90;;;;;;5011572;28;20056;-77
2021/09/04 11:18:21;;;;;;;29.42;20.95;;;23.50;99.90;;;;;;5012579;28;20553;-79
2021/09/04 11:20:49;;;;;;;25.80;21.35;;;23.50;99.90;;;;;;5011670;28;20425;-78
2021/09/04 11:23:29;;;;;;;24.17;21.25;;;23.40;99.90;;;;;;5011984;28;20144;-78
2021/09/04 11:26:02;;;;;;;24.52;20.48;;;23.40;99.90;;;;;;5012387;28;20076;-79
2021/09/04 11:28:30;;;;;;;23.20;19.25;;;23.40;99.90;;;;;;5014127;28;20052;-80
2021/09/04 11:30:57;;;;;;;24.85;19.15;;;23.60;99.90;;;;;;5013555;28;20053;-79
2021/09/04 11:33:24;;;;;;;22.20;18.10;;;23.80;99.90;;;;;;5015775;28;20125;-79
2021/09/04 11:35:52;;;;;;;23.67;20.42;;;24.00;99.90;;;;;;5019249;28;20122;-79
2021/09/04 11:38:19;;;;;;;23.38;20.88;;;24.00;99.90;;;;;;5012644;28;20510;-80
2021/09/04 11:40:48;;;;;;;23.17;20.33;;;23.70;99.90;;;;;;5013384;28;20050;-79
2021/09/04 11:43:16;;;;;;;23.83;19.52;;;23.80;99.90;;;;;;5014060;28;20050;-79
2021/09/04 11:45:44;;;;;;;23.65;18.92;;;24.00;99.90;;;;;;5013500;28;20065;-79
2021/09/04 11:48:12;;;;;;;22.55;19.05;;;24.10;99.90;;;;;;5013782;28;20140;-79
2021/09/04 11:50:40;;;;;;;21.95;18.17;;;24.30;99.90;;;;;;5013600;28;20429;-80
2021/09/04 11:53:10;;;;;;;24.15;17.60;;;24.30;99.90;;;;;;5013292;28;20054;-79
2021/09/04 11:55:38;;;;;;;21.45;18.92;;;24.20;99.90;;;;;;5013363;28;20080;-78
2021/09/04 11:58:12;;;;;;;21.98;18.55;;;24.20;99.90;;;;;;5013794;28;20498;-79
2021/09/04 12:00:41;;;;;;;22.48;19.00;;;24.20;99.90;;;;;;4994547;28;20069;-79
2021/09/04 12:03:09;;;;;;;23.00;18.75;;;24.20;99.90;;;;;;5002358;28;20478;-79
2021/09/04 12:08:17;;;;;;;23.48;20.45;;;24.00;99.90;;;;;;5036254;23;20081;-81
2021/09/04 12:11:30;;;;;;;;;;;;;;;;;;;;;
2021/09/04 12:14:06;;;;;;;25.17;19.90;;;24.10;99.90;;;;;;4991594;28;20017;-80
2021/09/04 12:16:47;;;;;;;23.50;18.38;;;24.20;99.90;;;;;;5011486;28;20669;-78
2021/09/04 12:19:20;;;;;;;19.70;17.23;;;24.30;99.90;;;;;;5003749;28;20108;-83
2021/09/04 12:21:56;;;;;;;23.40;18.73;;;24.40;99.90;;;;;;5011059;28;20144;-83
2021/09/04 12:27:48;;;;;;;18.48;16.20;;;24.60;99.90;;;;;;5016644;28;20128;-82
2021/09/04 12:30:16;;;;;;;19.83;17.00;;;24.60;99.90;;;;;;5018542;28;20061;-83
2021/09/04 12:32:43;;;;;;;18.02;16.08;;;24.70;99.90;;;;;;5018848;28;20191;-82
2021/09/04 12:35:10;;;;;;;21.10;16.77;;;24.70;99.90;;;;;;5021327;28;20153;-80
2021/09/04 12:37:37;;;;;;;19.65;16.30;;;24.70;99.90;;;;;;5021594;28;20129;-81
2021/09/04 12:40:09;;;;;;;21.13;17.30;;;24.70;99.90;;;;;;5022735;28;20073;-84